Capitol Logistics 412




KIAD
Washington Dulles International Airport
Dulles, Virginia
KMIA
Miami International Airport
Miami, Florida

Activity Log

Date Flight Route Aircraft Duration
05/13/2020 CPX202 KIAD/19C JDUBB3 MELTN GARIC Y307 JRDAN Y291 JENKS AR22 JORAY HILEY7 KMIA/I09 B763 2h 27m
04/16/2020 CPX202 JDUBB3 MELTN GARIC Y307 JRDAN Y291 JENKS AR22 JORAY HILEY7 B763 2h 27m
03/26/2020 CPX202 JCOBY3 COLIN J61 HUBBS KEMPR WETRO DIW AR22 JORAY HILEY7 B763 2h 31m
03/04/2020 CPX202 JDUBB2 SBV RAYVO Q87 TAALN Q83 JEVED Q97 WOPNR Q93 KENLL OMN HILEY7 B763 2h 31m
12/30/2019 CPX202 JDUBB2 GSO J75 CAE J51 SAV J103 OMN HILEY7 B763 2h 37m
11/06/2019 CPX202 JDUBB2 SBV RAYVO Q87 TAALN Q83 JEVED Q97 WOPNR Q93 KENLL OMN HILEY7 B763 2h 29m
10/30/2019 CPX412 JDUBB2 GSO J75 CAE J51 SAV J103 OMN HILEY7 B752 2h 37m
08/11/2019 CPX412 JDUBB2 GSO SAV J103 OMN J79 TRV ANNEY4 B752 2h 10m
06/22/2019 CPX202 JDUBB2 GSO J75 CAE J51 SAV J103 OMN HILEY7 B763 2h 20m
03/02/2019 CPX202 JCOBY3 COLIN J61 HUBBS KEMPR WETRO DIW AR22 JORAY HILEY7 B763 2h 23m
01/31/2019 CPX412 JCOBY3 COLIN J61 HUBBS KEMPR WETRO DIW AR22 JORAY HILEY7 B752 2h 45m
01/14/2019 CPX202 JDUBB2 GSO J75 CAE J51 SAV J103 OMN HILEY7 B763 2h 35m
12/14/2018 CPX312 JCOBY3 COLIN J61 HUBBS KEMPR WETRO DIW AR22 JORAY HILEY7 B752 2h 29m
12/12/2018 CPX122 JCOBY3 COLIN J61 HUBBS KEMPR WETRO DIW AR22 JORAY HILEY7 B763 2h 22m
12/07/2018 CPX312 JCOBY3 COLIN J61 HUBBS KEMPR WETRO DIW AR22 JORAY HILEY7 B752 2h 33m
12/06/2018 CPX112 JDUBB2 GSO J75 CAE J51 SAV J103 OMN HILEY7 MD11 2h 20m
11/29/2018 CPX312 JCOBY3 COLIN J61 HUBBS KEMPR WETRO DIW AR22 JORAY HILEY7 B752 2h 08m
11/28/2018 CPX122 JDUBB2 GSO J75 CAE J51 SAV J103 OMN HILEY7 B763 2h 29m
11/12/2018 CPX122 JDUBB2 GSO J75 CAE J51 SAV J103 OMN HILEY7 B763 2h 41m

Route Details

Aircraft Information
Primary: Boeing 737-800BCF
Backup: Boeing 757-200SF
Route Data
Distance: 894nm
Duration: 2h 04m
Recm'd Route: JDUBB2 GSO J75 CAE J51 SAV J103 OMN HILEY7
Origin Wx: KIAD 141952Z 19004KT 7SM -RA SCT012 BKN018 OVC090 14/13 A2998 RMK AO2 SLP153 P0002 T01440133
Dest. Wx: KMIA 141953Z 11013KT 10SM FEW040 27/17 A3005 RMK AO2 SLP177 T02720172 $
Notes: